Time;durP1;ratioP1;P1;durP2;ratioP2;P2;SDS_P1;SDS_P2;PMS_P1;PMS_P2;Temp;Humidity;BMP_temperature;BMP_pressure;BME280_temperature;BME280_humidity;BME280_pressure;Samples;Min_cycle;Max_cycle;Signal;HPM_P1;HPM_P2
2022/05/10 00:01:42;;;;;;;;;4.75;4.75;;;;;14.01;56.77;101433.19;146606;589;46018;-75
2022/05/10 00:04:34;;;;;;;;;5.50;4.50;;;;;13.96;56.94;101429.47;146614;632;46010;-75
2022/05/10 00:07:26;;;;;;;;;5.25;4.00;;;;;13.88;57.27;101425.59;146612;642;46010;-75
2022/05/10 00:10:18;;;;;;;;;4.75;4.75;;;;;13.79;56.99;101413.00;146607;624;47010;-72
2022/05/10 00:13:11;;;;;;;;;3.50;3.50;;;;;13.75;57.79;101418.00;146597;599;46019;-80
2022/05/10 00:16:03;;;;;;;;;5.00;5.00;;;;;13.58;58.76;101415.44;146609;630;46018;-73
2022/05/10 00:18:56;;;;;;;;;6.25;6.00;;;;;13.49;58.09;101411.47;146611;571;46010;-71
2022/05/10 00:21:48;;;;;;;;;3.50;2.75;;;;;13.45;57.77;101404.31;146610;593;46019;-71
2022/05/10 00:24:43;;;;;;;;;4.00;4.00;;;;;13.44;58.33;101418.19;146603;621;47008;-75
2022/05/10 00:27:36;;;;;;;;;5.00;5.00;;;;;13.40;57.97;101417.13;146611;614;46019;-74
2022/05/10 00:30:29;;;;;;;;;4.00;4.00;;;;;13.44;58.75;101412.97;146609;569;46018;-74
2022/05/10 00:33:29;;;;;;;;;4.50;4.50;;;;;13.36;58.01;101412.56;146612;638;46914;-74
2022/05/10 00:36:24;;;;;;;;;3.75;3.50;;;;;13.30;57.73;101407.03;146610;703;46008;-79
2022/05/10 00:39:17;;;;;;;;;7.00;7.00;;;;;13.36;58.26;101409.94;146609;639;46018;-83
2022/05/10 00:42:40;;;;;;;;;6.50;4.00;;;;;13.39;57.75;101405.81;146599;570;47008;-83
2022/05/10 00:46:05;;;;;;;;;5.00;4.00;;;;;13.35;57.49;101402.97;146605;577;46913;-77
2022/05/10 00:49:15;;;;;;;;;4.75;4.75;;;;;12.37;57.56;101231.34;146620;606;46010;-78
2022/05/10 00:52:36;;;;;;;;;4.00;4.00;;;;;13.34;57.29;101412.50;146626;586;46018;-77
2022/05/10 00:55:47;;;;;;;;;4.75;4.75;;;;;13.30;57.46;101397.53;146625;613;46020;-75
2022/05/10 00:59:13;;;;;;;;;3.75;3.75;;;;;13.17;57.68;101395.94;146625;630;45028;-76
2022/05/10 01:02:23;;;;;;;;;3.50;3.50;;;;;13.12;57.63;101393.97;146624;577;46019;-78
2022/05/10 01:05:31;;;;;;;;;4.25;4.25;;;;;13.10;57.62;101401.66;146624;575;45019;-80
2022/05/10 01:08:35;;;;;;;;;6.00;6.00;;;;;13.09;57.47;101392.09;146626;603;45916;-80
2022/05/10 01:11:50;;;;;;;;;3.25;2.75;;;;;13.12;57.59;101391.34;146621;660;46010;-81
2022/05/10 01:15:10;;;;;;;;;6.00;3.00;;;;;12.09;56.75;101205.59;146621;601;45915;-79
2022/05/10 01:18:03;;;;;;;;;6.50;5.00;;;;;13.17;57.74;101389.84;146624;563;45012;-71
2022/05/10 01:21:02;;;;;;;;;4.25;4.25;;;;;13.09;57.51;101397.28;146622;705;45028;-73
2022/05/10 01:24:49;;;;;;;;;4.00;4.00;;;;;12.95;57.53;101396.56;146628;677;46010;-74
2022/05/10 01:27:50;;;;;;;;;3.00;3.00;;;;;12.87;57.83;101392.69;146627;658;45018;-73
2022/05/10 01:30:43;;;;;;;;;3.50;3.50;;;;;11.82;58.53;101223.19;146629;629;45913;-73
2022/05/10 01:33:45;;;;;;;;;5.50;4.00;;;;;12.76;58.58;101396.41;146621;704;47916;-73
2022/05/10 01:36:52;;;;;;;;;2.75;2.50;;;;;12.65;57.62;101398.44;146626;569;45913;-73
2022/05/10 01:40:04;;;;;;;;;5.00;4.00;;;;;11.52;58.75;101220.66;146628;677;46010;-73
2022/05/10 01:43:04;;;;;;;;;4.75;3.25;;;;;12.46;59.04;101395.66;146626;618;45018;-72
2022/05/10 01:46:06;;;;;;;;;5.25;4.75;;;;;12.41;59.51;101398.00;146621;758;46008;-72
2022/05/10 01:49:17;;;;;;;;;5.75;4.00;;;;;12.43;58.98;101392.91;146624;570;45019;-72
2022/05/10 01:52:36;;;;;;;;;4.50;4.50;;;;;12.44;59.06;101399.91;146624;566;45018;-73
2022/05/10 01:55:38;;;;;;;;;4.00;3.25;;;;;12.42;59.35;101392.00;146630;569;45013;-74
2022/05/10 01:58:33;;;;;;;;;4.00;4.00;;;;;12.47;59.27;101393.16;146624;575;46010;-74
2022/05/10 02:01:39;;;;;;;;;5.00;4.00;;;;;12.55;58.82;101392.66;146627;626;45012;-74
2022/05/10 02:04:41;;;;;;;;;3.25;2.75;;;;;12.61;58.67;101400.78;146626;604;45030;-74
2022/05/10 02:07:37;;;;;;;;;3.00;3.00;;;;;11.16;59.42;101146.84;146626;638;46010;-71
2022/05/10 02:10:41;;;;;;;;;6.25;4.50;;;;;12.58;59.23;101398.91;146626;588;45010;-76
2022/05/10 02:13:38;;;;;;;;;3.75;3.00;;;;;12.55;59.99;101396.16;146621;593;46010;-71
2022/05/10 02:16:58;;;;;;;;;6.50;5.00;;;;;12.57;58.57;101396.25;146620;659;46915;-72
2022/05/10 02:19:57;;;;;;;;;6.00;4.00;;;;;12.64;59.04;101398.34;146616;601;47912;-73
2022/05/10 02:23:03;;;;;;;;;4.50;4.50;;;;;12.67;58.97;101403.72;146626;571;45018;-74
2022/05/10 02:26:13;;;;;;;;;4.00;3.00;;;;;12.64;58.92;101399.25;146628;643;45012;-74
2022/05/10 02:29:29;;;;;;;;;5.00;4.50;;;;;12.66;58.91;101405.44;146628;612;45018;-74
2022/05/10 02:35:56;;;;;;;;;4.25;4.00;;;;;12.60;58.47;101401.62;146626;670;45019;-70
2022/05/10 02:38:48;;;;;;;;;3.50;2.50;;;;;12.60;58.63;101406.81;146628;615;46012;-76
2022/05/10 02:41:41;;;;;;;;;4.50;4.25;;;;;12.61;59.38;101406.00;146625;602;46010;-75
2022/05/10 02:44:33;;;;;;;;;4.50;3.75;;;;;12.58;58.91;101411.91;146625;603;46010;-74
2022/05/10 02:47:40;;;;;;;;;5.75;5.00;;;;;12.54;58.34;101404.78;146613;715;46019;-74
2022/05/10 02:50:36;;;;;;;;;6.25;4.25;;;;;12.50;59.83;101407.16;146606;603;46018;-74
2022/05/10 02:53:29;;;;;;;;;4.25;3.00;;;;;12.45;59.47;101404.28;146610;659;46010;-74
2022/05/10 02:56:26;;;;;;;;;5.75;4.75;;;;;12.37;59.15;101401.28;146608;598;46018;-74
2022/05/10 02:59:26;;;;;;;;;3.50;3.00;;;;;12.32;58.96;101407.03;146609;602;46018;-75
2022/05/10 03:02:28;;;;;;;;;4.50;2.25;;;;;12.25;60.66;101406.69;146608;569;46018;-74
2022/05/10 03:05:20;;;;;;;;;5.25;4.00;;;;;12.22;59.53;101405.63;146612;681;46010;-74
2022/05/10 03:08:12;;;;;;;;;4.75;3.25;;;;;12.22;60.84;101401.31;146610;684;46012;-74
2022/05/10 03:11:04;;;;;;;;;3.75;3.75;;;;;12.27;59.71;101404.16;146612;628;46011;-74
2022/05/10 03:13:57;;;;;;;;;4.25;4.00;;;;;11.29;59.97;101233.28;146610;628;46010;-74
2022/05/10 03:16:49;;;;;;;;;5.00;5.00;;;;;12.32;59.81;101407.91;146600;645;46010;-71
2022/05/10 03:19:43;;;;;;;;;6.25;5.25;;;;;12.32;59.54;101407.03;146609;678;46019;-71
2022/05/10 03:22:35;;;;;;;;;6.00;4.00;;;;;12.32;59.70;101407.91;146611;584;46010;-72
2022/05/10 03:25:27;;;;;;;;;4.50;4.50;;;;;12.28;59.29;101405.06;146611;615;46914;-71
2022/05/10 03:28:19;;;;;;;;;5.75;4.50;;;;;12.29;59.06;101407.75;146610;618;46018;-72
2022/05/10 03:31:13;;;;;;;;;7.00;4.25;;;;;12.35;58.92;101410.69;146610;684;46029;-72
2022/05/10 03:37:15;;;;;;;;;5.50;4.50;;;;;12.44;59.22;101408.59;146611;566;46010;-71
2022/05/10 03:40:08;;;;;;;;;7.25;6.00;;;;;12.48;58.99;101404.44;146611;743;46010;-72
2022/05/10 03:43:01;;;;;;;;;6.25;6.00;;;;;12.55;58.97;101426.47;146609;563;47010;-72
2022/05/10 03:45:53;;;;;;;;;7.25;5.25;;;;;12.53;58.95;101425.53;146600;563;46026;-73
2022/05/10 03:48:45;;;;;;;;;5.25;5.25;;;;;12.50;58.39;101428.84;146608;615;46019;-74
2022/05/10 03:51:37;;;;;;;;;9.00;6.50;;;;;12.49;58.93;101429.63;146600;609;46915;-73
2022/05/10 03:54:29;;;;;;;;;8.25;8.25;;;;;12.43;59.09;101426.72;146606;632;46018;-73
2022/05/10 03:57:26;;;;;;;;;11.50;9.25;;;;;12.41;58.43;101428.34;146605;564;46018;-73
2022/05/10 04:00:25;;;;;;;;;9.00;8.00;;;;;12.42;59.21;101431.00;146605;568;47010;-73
2022/05/10 04:03:24;;;;;;;;;10.00;8.00;;;;;12.39;58.80;101435.16;146609;636;46019;-72
2022/05/10 04:06:19;;;;;;;;;7.25;6.75;;;;;12.40;59.25;101432.66;146610;577;46010;-69
2022/05/10 04:09:11;;;;;;;;;7.50;7.00;;;;;12.41;59.46;101428.34;146609;590;46019;-70
2022/05/10 04:12:07;;;;;;;;;7.00;5.75;;;;;12.42;59.17;101437.91;146610;604;47010;-71
2022/05/10 04:15:02;;;;;;;;;5.00;4.75;;;;;12.43;59.05;101443.22;146600;570;46018;-71
2022/05/10 04:17:56;;;;;;;;;5.00;4.75;;;;;12.53;59.01;101442.00;146606;574;46019;-72
2022/05/10 04:20:51;;;;;;;;;6.00;5.00;;;;;12.67;58.66;101447.97;146612;564;46010;-72
2022/05/10 04:23:46;;;;;;;;;4.00;4.00;;;;;12.80;59.11;101441.69;146612;731;46018;-75
2022/05/10 04:26:42;;;;;;;;;6.50;6.00;;;;;12.89;58.89;101440.47;146611;570;46010;-72
2022/05/10 04:29:38;;;;;;;;;8.00;8.00;;;;;13.03;58.89;101450.75;146606;596;46030;-72
2022/05/10 04:32:30;;;;;;;;;6.00;6.00;;;;;13.16;59.12;101447.97;146609;598;46018;-74
2022/05/10 04:35:26;;;;;;;;;4.75;4.00;;;;;13.30;58.55;101444.41;146608;591;46018;-74
2022/05/10 04:38:19;;;;;;;;;5.25;5.25;;;;;13.51;59.08;101449.81;146610;680;47010;-73
2022/05/10 04:41:25;;;;;;;;;8.00;6.00;;;;;13.74;58.05;101456.19;146609;671;46012;-74
2022/05/10 04:44:24;;;;;;;;;8.00;6.00;;;;;14.00;57.74;101451.38;146600;582;46021;-76
2022/05/10 04:47:16;;;;;;;;;6.75;6.75;;;;;14.25;57.46;101450.84;146609;596;46019;-76
2022/05/10 04:50:09;;;;;;;;;5.75;3.75;;;;;14.55;56.77;101454.06;146610;573;46018;-76
2022/05/10 04:53:10;;;;;;;;;6.00;4.50;;;;;14.89;55.64;101460.81;146611;610;46914;-80
2022/05/10 04:56:06;;;;;;;;;6.50;6.00;;;;;15.20;55.03;101461.38;146610;566;46018;-76
2022/05/10 04:58:58;;;;;;;;;7.50;6.75;;;;;15.50;54.68;101455.69;146610;618;46018;-74
2022/05/10 05:01:51;;;;;;;;;4.75;4.50;;;;;15.77;53.81;101465.56;146611;593;47008;-78
2022/05/10 05:04:43;;;;;;;;;6.50;5.25;;;;;16.05;53.86;101457.13;146612;598;46010;-79
2022/05/10 05:07:36;;;;;;;;;6.50;6.50;;;;;16.29;54.53;101446.72;146609;577;48010;-84
2022/05/10 05:10:37;;;;;;;;;7.00;5.75;;;;;16.58;52.68;101458.34;146610;592;46010;-81
2022/05/10 05:13:30;;;;;;;;;5.25;5.25;;;;;16.79;53.37;101458.28;146598;678;46018;-79
2022/05/10 05:16:22;;;;;;;;;6.75;5.25;;;;;17.00;52.69;101452.97;146612;619;46011;-79
2022/05/10 05:19:15;;;;;;;;;5.50;5.50;;;;;17.19;52.64;101460.66;146611;625;46018;-79
2022/05/10 05:22:07;;;;;;;;;6.00;6.00;;;;;17.39;51.63;101456.12;146602;665;46018;-79
2022/05/10 05:25:04;;;;;;;;;7.75;6.00;;;;;17.56;50.76;101461.94;146610;575;46019;-78
2022/05/10 05:27:56;;;;;;;;;7.00;7.00;;;;;17.71;50.71;101462.47;146613;676;46010;-79
2022/05/10 05:30:50;;;;;;;;;8.00;7.25;;;;;17.89;50.58;101457.00;146613;652;46018;-78
2022/05/10 05:33:45;;;;;;;;;6.25;5.25;;;;;18.04;50.36;101455.69;146611;628;46010;-76
2022/05/10 05:36:38;;;;;;;;;6.25;6.25;;;;;18.21;50.56;101455.41;146605;617;46018;-76
2022/05/10 05:39:31;;;;;;;;;10.25;10.00;;;;;18.36;50.30;101449.75;146608;579;46019;-78
2022/05/10 05:42:23;;;;;;;;;9.00;6.50;;;;;18.52;50.12;101452.84;146601;591;46010;-78
2022/05/10 05:45:25;;;;;;;;;10.00;9.75;;;;;18.67;50.87;101453.31;146604;643;47010;-75
2022/05/10 05:48:17;;;;;;;;;11.25;9.25;;;;;18.81;50.39;101451.13;146605;613;46019;-75
2022/05/10 05:51:11;;;;;;;;;14.00;11.75;;;;;18.92;50.59;101454.97;146602;565;47010;-69
2022/05/10 05:54:08;;;;;;;;;13.25;10.25;;;;;19.09;50.39;101460.69;146605;638;47008;-70
2022/05/10 05:57:17;;;;;;;;;12.50;10.50;;;;;19.29;49.46;101456.87;146600;613;46018;-70
2022/05/10 06:00:14;;;;;;;;;9.75;8.00;;;;;19.43;48.98;101451.97;146608;624;46018;-68
2022/05/10 06:03:14;;;;;;;;;7.00;6.00;;;;;19.58;49.38;101457.66;146609;588;47010;-68
2022/05/10 06:06:11;;;;;;;;;4.75;4.25;;;;;19.62;48.88;101467.41;146607;638;46024;-69
2022/05/10 06:09:03;;;;;;;;;6.00;6.00;;;;;19.59;49.27;101455.91;146611;583;46011;-69
2022/05/10 06:11:56;;;;;;;;;3.00;3.00;;;;;19.60;49.41;101468.22;146599;612;46010;-72
2022/05/10 06:14:53;;;;;;;;;4.75;4.75;;;;;19.64;49.55;101463.94;146609;661;47010;-72
2022/05/10 06:17:52;;;;;;;;;4.75;4.00;;;;;19.59;48.13;101459.44;146607;608;46019;-71
2022/05/10 06:20:44;;;;;;;;;4.75;4.25;;;;;19.60;48.50;101471.75;146607;656;46018;-72
2022/05/10 06:23:36;;;;;;;;;4.67;4.67;;;;;19.65;46.69;101469.25;146608;564;46019;-72
2022/05/10 06:26:28;;;;;;;;;6.75;5.00;;;;;19.72;48.10;101476.47;146609;563;47010;-72
2022/05/10 06:29:20;;;;;;;;;5.50;4.50;;;;;19.77;45.49;101460.78;146609;566;46018;-70
2022/05/10 06:32:12;;;;;;;;;3.67;3.67;;;;;19.87;45.51;101465.41;146610;580;46019;-69
2022/05/10 06:35:04;;;;;;;;;3.50;3.50;;;;;19.99;46.44;101464.84;146608;596;46010;-72
2022/05/10 06:41:07;;;;;;;;;3.00;3.00;;;;;20.23;45.58;101470.69;146600;573;46018;-69
2022/05/10 06:43:59;;;;;;;;;4.00;4.00;;;;;20.32;45.90;101466.50;146610;643;46029;-71
2022/05/10 06:46:51;;;;;;;;;5.25;5.25;;;;;20.40;44.97;101467.56;146611;556;47008;-71
2022/05/10 06:49:43;;;;;;;;;7.25;7.00;;;;;20.43;45.28;101476.41;146609;582;46018;-71
2022/05/10 06:52:35;;;;;;;;;5.75;3.75;;;;;20.47;44.71;101475.66;146611;655;46018;-72
2022/05/10 06:55:32;;;;;;;;;5.50;5.00;;;;;20.49;44.64;101467.78;146608;584;46012;-74
2022/05/10 06:58:24;;;;;;;;;5.00;4.00;;;;;20.58;45.05;101468.00;146608;709;47008;-76
2022/05/10 07:01:16;;;;;;;;;7.00;6.00;;;;;20.68;44.84;101464.72;146608;633;46010;-77
2022/05/10 07:04:09;;;;;;;;;6.00;6.00;;;;;20.74;43.94;101469.22;146608;629;46010;-77
2022/05/10 07:07:01;;;;;;;;;4.67;3.67;;;;;20.77;44.93;101464.91;146609;644;47013;-75
2022/05/10 07:09:54;;;;;;;;;3.50;3.25;;;;;20.86;44.53;101461.59;146598;569;46018;-76
2022/05/10 07:12:48;;;;;;;;;5.00;4.00;;;;;20.93;44.96;101452.97;146608;585;47010;-78
2022/05/10 07:15:40;;;;;;;;;4.75;4.00;;;;;21.01;44.86;101463.66;146612;615;46009;-82
2022/05/10 07:18:33;;;;;;;;;4.00;4.00;;;;;21.10;43.90;101466.47;146610;572;46018;-80
2022/05/10 07:21:25;;;;;;;;;4.00;4.00;;;;;21.20;43.74;101457.00;146612;565;46010;-80
2022/05/10 07:24:19;;;;;;;;;3.75;2.75;;;;;21.27;43.68;101458.88;146610;672;46914;-79
2022/05/10 07:27:11;;;;;;;;;3.00;3.00;;;;;21.36;43.51;101464.37;146612;608;46018;-79
2022/05/10 07:30:03;;;;;;;;;4.00;3.75;;;;;21.47;43.71;101454.03;146608;573;46011;-79
2022/05/10 07:32:56;;;;;;;;;4.33;2.00;;;;;21.58;42.56;101457.72;146611;569;46018;-81
2022/05/10 07:38:58;;;;;;;;;2.33;2.33;;;;;21.78;42.66;101449.28;146601;570;46018;-80
2022/05/10 07:41:51;;;;;;;;;4.00;3.00;;;;;21.84;42.38;101459.97;146607;570;46012;-81
2022/05/10 07:44:43;;;;;;;;;3.00;3.00;;;;;21.91;43.91;101464.47;146612;564;47008;-81
2022/05/10 07:47:35;;;;;;;;;3.67;3.00;;;;;22.02;42.17;101469.91;146606;691;47012;-82
2022/05/10 07:50:28;;;;;;;;;2.50;2.50;;;;;22.13;41.90;101471.88;146610;652;47008;-80
2022/05/10 07:53:20;;;;;;;;;3.50;2.50;;;;;22.23;43.20;101470.28;146608;594;45038;-82
2022/05/10 07:56:13;;;;;;;;;3.33;3.00;;;;;22.34;42.60;101470.47;146612;593;46010;-82
2022/05/10 07:59:04;;;;;;;;;5.67;4.00;;;;;22.41;41.62;101468.78;146606;593;47914;-80
2022/05/10 08:01:57;;;;;;;;;2.00;2.00;;;;;22.40;41.83;101472.28;146613;586;46010;-80
2022/05/10 08:04:48;;;;;;;;;4.33;3.00;;;;;22.46;42.07;101478.56;146610;573;46010;-81
2022/05/10 08:07:41;;;;;;;;;4.67;2.00;;;;;22.52;38.25;101476.03;146600;607;46018;-80
2022/05/10 08:10:33;;;;;;;;;4.00;3.00;;;;;21.35;40.90;101277.03;146613;584;46012;-81
2022/05/10 08:13:31;;;;;;;;;3.00;3.00;;;;;22.36;39.76;101474.88;146611;659;46019;-82
2022/05/10 08:16:26;;;;;;;;;4.67;4.00;;;;;22.34;42.06;101470.47;146609;584;46018;-80
2022/05/10 08:19:18;;;;;;;;;3.00;3.00;;;;;22.42;40.75;101470.56;146613;589;46008;-81
2022/05/10 08:22:10;;;;;;;;;3.00;2.00;;;;;22.57;40.96;101469.03;146610;636;46914;-88
2022/05/10 08:25:03;;;;;;;;;3.67;3.67;;;;;22.67;41.55;101464.75;146609;604;46018;-77
2022/05/10 08:27:55;;;;;;;;;3.00;3.00;;;;;22.73;41.28;101467.47;146611;630;46019;-91
2022/05/10 08:30:50;;;;;;;;;5.00;4.00;;;;;22.73;40.63;101461.31;146611;611;46008;-87
2022/05/10 08:33:45;;;;;;;;;5.33;4.00;;;;;22.69;40.09;101465.66;146609;590;46018;-87
2022/05/10 08:36:38;;;;;;;;;3.67;2.67;;;;;22.72;38.95;101462.19;146602;668;46019;-86
2022/05/10 08:39:30;;;;;;;;;3.00;2.33;;;;;22.71;40.70;101461.31;146611;589;46010;-86
2022/05/10 08:43:03;;;;;;;;;;;;;;;;;;;;;
2022/05/10 08:46:13;;;;;;;;;2.33;2.33;;;;;22.84;40.90;101459.69;146610;565;46018;-87
2022/05/10 08:49:26;;;;;;;;;1.67;1.67;;;;;22.89;41.54;101444.75;146627;608;46010;-85
2022/05/10 08:52:20;;;;;;;;;3.67;3.67;;;;;23.00;40.32;101453.75;146626;612;46012;-83
2022/05/10 08:55:15;;;;;;;;;3.00;3.00;;;;;23.12;40.22;101450.37;146626;576;46010;-84
2022/05/10 08:58:43;;;;;;;;;1.33;1.33;;;;;22.35;41.61;101300.50;146629;651;45019;-91
2022/05/10 09:01:50;;;;;;;;;4.33;3.00;;;;;23.20;41.27;101450.44;146623;573;46010;-77
2022/05/10 09:05:20;;;;;;;;;4.33;4.00;;;;;22.22;42.42;101285.38;146625;565;46914;-78
2022/05/10 09:09:09;;;;;;;;;2.00;2.00;;;;;22.16;41.71;101279.97;146619;572;45024;-78
2022/05/10 09:12:14;;;;;;;;;4.00;4.00;;;;;23.16;38.82;101448.62;146626;591;46018;-75
2022/05/10 09:15:11;;;;;;;;;4.00;3.67;;;;;23.12;37.95;101450.37;146626;569;45018;-76
2022/05/10 09:18:09;;;;;;;;;4.00;4.00;;;;;22.97;38.83;101444.91;146629;643;45018;-76
2022/05/10 09:21:13;;;;;;;;;4.00;4.00;;;;;22.76;39.61;101445.47;146626;605;45011;-76
2022/05/10 09:24:52;;;;;;;;;2.33;2.00;;;;;21.66;40.29;101286.34;146627;596;46012;-77
2022/05/10 09:27:45;;;;;;;;;4.67;3.33;;;;;22.56;41.39;101446.13;146627;610;46011;-76
2022/05/10 09:30:39;;;;;;;;;4.25;4.00;;;;;22.67;42.11;101443.59;146625;602;45018;-77
2022/05/10 09:36:43;;;;;;;;;4.00;3.33;;;;;22.93;42.59;101432.44;146622;617;45019;-78
2022/05/10 09:39:43;;;;;;;;;10.00;9.50;;;;;22.98;43.04;101426.37;146617;701;47008;-79
2022/05/10 09:42:49;;;;;;;;;3.00;3.00;;;;;23.10;42.53;101420.34;146628;649;45018;-76
2022/05/10 09:45:42;;;;;;;;;3.67;2.33;;;;;23.21;41.67;101421.38;146623;576;46010;-76
2022/05/10 09:48:35;;;;;;;;;3.33;3.33;;;;;23.20;38.98;101418.69;146611;582;46018;-77
2022/05/10 09:51:45;;;;;;;;;3.33;3.33;;;;;23.27;41.46;101424.06;146611;583;46027;-78
2022/05/10 09:54:44;;;;;;;;;1.67;1.67;;;;;23.32;41.54;101410.88;146613;625;46018;-82
2022/05/10 09:57:48;;;;;;;;;3.33;3.00;;;;;23.33;39.91;101412.63;146612;661;46010;-75
2022/05/10 10:00:52;;;;;;;;;2.00;2.00;;;;;23.31;41.47;101411.75;146612;563;46010;-81
2022/05/10 10:03:47;;;;;;;;;3.67;2.33;;;;;23.23;41.00;101419.59;146614;619;46010;-76
2022/05/10 10:06:39;;;;;;;;;5.67;3.00;;;;;23.19;41.55;101416.94;146609;577;46019;-74
2022/05/10 10:09:36;;;;;;;;;3.67;3.00;;;;;23.10;37.98;101419.47;146601;569;46025;-73
2022/05/10 10:12:40;;;;;;;;;2.67;2.67;;;;;22.97;40.03;101414.03;146610;567;46019;-74
2022/05/10 10:15:46;;;;;;;;;2.00;2.00;;;;;22.87;40.70;101412.13;146610;605;46018;-74
2022/05/10 10:18:49;;;;;;;;;5.67;3.33;;;;;22.90;42.28;101406.00;146610;607;46914;-75
2022/05/10 10:21:53;;;;;;;;;4.00;2.00;;;;;22.95;43.41;101413.13;146613;677;46019;-75
2022/05/10 10:25:11;;;;;;;;;5.00;3.33;;;;;23.01;40.94;101410.56;146600;579;53010;-76
2022/05/10 10:28:09;;;;;;;;;3.00;3.00;;;;;;;;146611;638;46019;-76
2022/05/10 10:31:15;;;;;;;;;4.67;3.67;;;;;23.16;41.79;101411.59;146612;606;45016;-75
2022/05/10 10:34:41;;;;;;;;;3.00;3.00;;;;;23.22;42.76;101395.78;146610;685;46021;-76
2022/05/10 10:38:01;;;;;;;;;3.67;2.67;;;;;21.47;42.74;101084.66;146610;579;46016;-77
2022/05/10 10:41:10;;;;;;;;;5.33;4.33;;;;;23.30;43.12;101396.72;146601;602;46020;-77
2022/05/10 10:44:26;;;;;;;;;2.00;2.00;;;;;22.49;42.86;101237.22;146612;626;46029;-76
2022/05/10 10:47:44;;;;;;;;;3.67;3.67;;;;;23.41;42.66;101400.38;146611;587;46020;-75
2022/05/10 10:50:39;;;;;;;;;2.00;2.00;;;;;23.38;43.46;101391.53;146608;623;46013;-78
2022/05/10 10:53:34;;;;;;;;;2.00;2.00;;;;;23.38;44.86;101384.47;146612;585;46020;-76
2022/05/10 10:57:04;;;;;;;;;5.33;3.00;;;;;23.41;45.20;101384.50;146609;571;46017;-77
2022/05/10 11:00:21;;;;;;;;;5.00;4.67;;;;;23.48;45.74;101382.78;146610;598;46010;-75
2022/05/10 11:03:31;;;;;;;;;4.67;4.67;;;;;23.56;45.12;101383.75;146609;597;46016;-77
2022/05/10 11:06:28;;;;;;;;;3.33;3.33;;;;;23.59;46.29;101375.84;146611;579;46021;-77
2022/05/10 11:09:53;;;;;;;;;2.00;2.00;;;;;22.66;45.15;101214.50;146608;580;46016;-74
2022/05/10 11:13:29;;;;;;;;;1.33;1.33;;;;;22.73;44.97;101216.31;146600;625;46020;-76
2022/05/10 11:16:55;;;;;;;;;6.00;3.67;;;;;23.69;44.67;101371.53;146609;583;46016;-76
2022/05/10 11:20:11;;;;;;;;;5.00;3.00;;;;;23.58;42.98;101370.50;146611;601;46023;-77
2022/05/10 11:23:08;;;;;;;;;4.00;3.00;;;;;23.46;45.65;101363.38;146611;640;46915;-77
2022/05/10 11:26:28;;;;;;;;;3.00;3.00;;;;;23.49;46.29;101369.59;146609;632;46021;-77
2022/05/10 11:29:56;;;;;;;;;4.33;2.00;;;;;23.66;45.82;101363.53;146610;618;46016;-76
2022/05/10 11:33:36;;;;;;;;;2.33;2.33;;;;;22.81;44.40;101205.84;146612;587;46010;-77
2022/05/10 11:36:48;;;;;;;;;0.33;0.00;;;;;23.79;46.46;101368.06;146610;581;46016;-77
2022/05/10 11:40:23;;;;;;;;;4.33;3.00;;;;;22.94;45.73;101206.84;146611;569;46012;-76
2022/05/10 11:44:02;;;;;;;;;2.33;2.33;;;;;22.81;46.58;101205.84;146606;569;47012;-77
2022/05/10 11:47:35;;;;;;;;;2.00;1.67;;;;;23.66;45.85;101358.25;146599;571;47020;-77
2022/05/10 11:55:15;;;;;;;;;3.67;3.00;;;;;23.39;46.73;101362.41;146609;620;46020;-77
2022/05/10 11:58:20;;;;;;;;;2.00;1.00;;;;;23.36;46.98;101353.56;146600;581;47010;-79
2022/05/10 12:02:15;;;;;;;;;4.67;1.67;;;;;23.35;45.89;101355.34;146606;570;46029;-77
2022/05/10 12:05:26;;;;;;;;;4.67;3.00;;;;;23.29;47.27;101355.28;146612;584;45017;-77
2022/05/10 12:08:44;;;;;;;;;2.33;2.33;;;;;22.40;47.12;101198.41;146611;664;46010;-76
2022/05/10 12:11:41;;;;;;;;;4.00;4.00;;;;;22.27;47.41;101186.78;146605;637;46914;-76
2022/05/10 12:22:24;;;;;;;;;3.00;2.33;;;;;23.22;45.27;101345.53;146599;598;46010;-74
2022/05/10 12:29:10;;;;;;;;;3.33;3.33;;;;;23.22;44.25;101329.66;146613;576;46010;-75
2022/05/10 12:32:43;;;;;;;;;3.00;3.00;;;;;23.25;44.93;101319.09;146605;576;47012;-76
2022/05/10 12:36:16;;;;;;;;;3.00;2.00;;;;;21.59;44.90;101025.88;146607;613;47010;-78
2022/05/10 12:39:30;;;;;;;;;2.00;2.00;;;;;23.29;44.98;101319.13;146608;594;47012;-78
2022/05/10 12:43:15;;;;;;;;;2.00;2.00;;;;;23.37;44.70;101316.53;146607;579;46020;-78
2022/05/10 12:47:16;;;;;;;;;3.67;3.00;;;;;23.54;44.68;101307.84;146606;592;47015;-77
2022/05/10 12:51:15;;;;;;;;;2.33;1.67;;;;;23.60;45.12;101311.41;146623;688;46010;-77
2022/05/10 12:54:25;;;;;;;;;1.00;1.00;;;;;23.58;44.82;101299.03;146620;587;46013;-77
2022/05/10 13:01:26;;;;;;;;;3.00;2.00;;;;;23.46;44.36;101290.16;146629;637;45013;-76
2022/05/10 13:04:24;;;;;;;;;2.67;2.67;;;;;23.43;44.65;101292.78;146623;641;46021;-76
2022/05/10 13:08:16;;;;;;;;;3.00;2.00;;;;;23.49;45.02;101284.87;146624;569;46010;-77
2022/05/10 13:11:21;;;;;;;;;3.00;2.00;;;;;23.53;44.44;101280.50;146621;577;46021;-77
2022/05/10 13:14:21;;;;;;;;;3.67;2.00;;;;;23.54;44.50;101276.97;146623;597;45016;-76
2022/05/10 13:17:14;;;;;;;;;1.33;1.33;;;;;23.58;44.56;101275.22;146626;567;45021;-77
2022/05/10 13:20:15;;;;;;;;;2.33;1.33;;;;;23.61;44.09;101273.47;146629;566;46012;-79
2022/05/10 13:23:09;;;;;;;;;3.00;2.33;;;;;23.63;43.87;101271.72;146627;669;45020;-77
2022/05/10 13:26:14;;;;;;;;;1.33;1.00;;;;;23.61;44.02;101269.94;146627;590;45017;-78
2022/05/10 13:29:09;;;;;;;;;4.00;2.00;;;;;23.62;43.76;101274.37;146623;593;45021;-78
2022/05/10 13:32:01;;;;;;;;;1.33;1.33;;;;;23.60;43.81;101261.13;146628;573;46011;-78
2022/05/10 13:34:55;;;;;;;;;0.33;0.33;;;;;23.59;42.53;101269.06;146617;600;46012;-69
2022/05/10 13:38:17;;;;;;;;;2.00;2.00;;;;;22.62;44.46;101103.44;146624;650;45016;-73
2022/05/10 13:41:13;;;;;;;;;2.33;2.33;;;;;23.47;44.27;101267.22;146620;623;46912;-74
2022/05/10 13:44:19;;;;;;;;;1.00;1.00;;;;;23.31;44.22;101266.22;146627;570;46016;-78
2022/05/10 13:47:32;;;;;;;;;3.67;2.00;;;;;23.21;44.31;101259.97;146626;584;47010;-75
2022/05/10 13:50:31;;;;;;;;;2.00;2.00;;;;;23.17;43.92;101258.16;146613;618;46012;-76
2022/05/10 13:53:32;;;;;;;;;0.67;0.33;;;;;23.15;43.87;101259.03;146612;572;46021;-74
2022/05/10 13:56:32;;;;;;;;;3.00;2.33;;;;;23.12;44.31;101248.44;146610;566;46016;-75
2022/05/10 13:59:36;;;;;;;;;1.33;1.33;;;;;23.10;44.90;101252.81;146600;598;46010;-75
2022/05/10 14:02:29;;;;;;;;;5.00;3.00;;;;;23.08;44.99;101246.63;146607;668;46014;-75
2022/05/10 14:05:23;;;;;;;;;2.33;0.67;;;;;23.03;44.83;101239.53;146610;637;46020;-75
2022/05/10 14:08:25;;;;;;;;;3.00;3.00;;;;;23.03;45.04;101236.91;146609;600;46016;-75
2022/05/10 14:11:20;;;;;;;;;2.00;2.00;;;;;23.02;44.81;101231.59;146612;693;47010;-75
2022/05/10 14:14:20;;;;;;;;;1.67;1.33;;;;;23.01;44.64;101232.47;146611;619;46010;-77
2022/05/10 14:17:12;;;;;;;;;3.33;3.33;;;;;22.93;45.00;101231.47;146610;578;46010;-75
2022/05/10 14:20:16;;;;;;;;;1.00;1.00;;;;;22.88;44.44;101230.56;146608;598;46016;-75
2022/05/10 14:23:12;;;;;;;;;2.33;2.33;;;;;21.79;44.62;101047.19;146613;589;46018;-74
2022/05/10 14:26:26;;;;;;;;;2.33;2.33;;;;;22.84;44.57;101227.00;146611;570;47012;-75
2022/05/10 14:29:26;;;;;;;;;2.67;1.67;;;;;22.76;45.55;101221.62;146599;636;47010;-74
2022/05/10 14:32:36;;;;;;;;;4.00;4.00;;;;;22.71;46.05;101231.31;146609;599;46016;-74
2022/05/10 14:35:35;;;;;;;;;2.00;2.00;;;;;22.71;45.57;101231.31;146609;597;46033;-76
2022/05/10 14:38:28;;;;;;;;;2.00;2.00;;;;;22.53;46.12;101210.84;146611;615;46016;-75
2022/05/10 14:41:47;;;;;;;;;3.67;2.33;;;;;22.60;45.66;101222.38;146610;609;46010;-76
2022/05/10 14:44:45;;;;;;;;;4.33;2.67;;;;;22.54;46.17;101217.03;146608;573;46918;-76